createdAt,value
2017-06-21T16:36:58.603Z,20.52
2017-06-21T16:37:58.647Z,20.52
2017-06-21T16:38:58.697Z,20.23
2017-06-21T16:39:58.732Z,20.91
2017-06-21T16:40:58.773Z,20.62
2017-06-21T16:41:58.825Z,20.32
2017-06-21T16:42:58.865Z,20.42
2017-06-21T16:43:58.913Z,20.72
2017-06-21T16:44:58.951Z,20.52
2017-06-21T16:45:58.997Z,20.52
2017-06-21T16:46:59.038Z,20.62
2017-06-21T16:47:59.084Z,20.72
2017-06-21T16:48:59.127Z,20.81
2017-06-21T16:49:59.175Z,20.91
2017-06-21T16:50:59.217Z,21.11
2017-06-21T16:51:59.261Z,21
2017-06-21T16:52:59.305Z,21.19
2017-06-21T16:53:59.348Z,20.9
2017-06-21T16:54:59.395Z,20.8
2017-06-21T16:55:59.439Z,21.29
2017-06-21T16:56:59.485Z,21.48
2017-06-21T16:57:59.528Z,21.39
2017-06-21T16:58:59.583Z,21.39
2017-06-21T16:59:59.615Z,21.19
2017-06-21T17:00:59.662Z,21.39
2017-06-21T17:01:59.708Z,21.39
2017-06-21T17:02:59.751Z,21.29
2017-06-21T17:03:59.793Z,21.19
2017-06-21T17:04:59.839Z,21.19
2017-06-21T17:05:59.885Z,21.29
2017-06-21T17:06:59.929Z,21.58
2017-06-21T17:08:00.287Z,21.78
2017-06-21T17:09:00.021Z,21.58
2017-06-21T17:10:00.064Z,21.68
2017-06-21T17:11:00.107Z,21.58
2017-06-21T17:12:00.152Z,21.68
2017-06-21T17:13:00.198Z,21.58
2017-06-21T17:14:00.247Z,21.96
2017-06-21T17:15:00.288Z,21.67
2017-06-21T17:16:00.334Z,21.67
2017-06-21T17:17:00.379Z,21.77
2017-06-21T17:18:00.423Z,21.67
2017-06-21T17:19:00.473Z,21.77
2017-06-21T17:20:00.513Z,21.77
2017-06-21T17:21:00.554Z,21.77
2017-06-21T17:22:00.599Z,21.67
2017-06-21T17:23:00.958Z,21.77
2017-06-21T17:24:00.687Z,21.96
2017-06-21T17:25:00.732Z,22.25
2017-06-21T17:26:00.778Z,22.06
2017-06-21T17:27:00.823Z,21.96
2017-06-21T17:28:00.870Z,21.67
2017-06-21T17:29:00.913Z,21.77
2017-06-21T17:30:00.959Z,21.66
2017-06-21T17:31:01.000Z,21.56
2017-06-21T17:32:01.050Z,22.06
2017-06-21T17:33:01.099Z,21.75
2017-06-21T17:34:01.139Z,22.05
2017-06-21T17:35:01.179Z,21.56
2017-06-21T17:36:01.227Z,22.34
2017-06-21T17:37:01.269Z,21.95
2017-06-21T17:38:01.314Z,21.85
2017-06-21T17:39:01.360Z,21.85
2017-06-21T17:40:01.419Z,22.24
2017-06-21T17:41:01.449Z,22.05
2017-06-21T17:42:01.495Z,21.66
2017-06-21T17:43:01.538Z,21.47
2017-06-21T17:44:01.892Z,22.05
2017-06-21T17:45:01.937Z,22.05
2017-06-21T17:46:01.672Z,21.95
2017-06-21T17:47:01.714Z,21.95
2017-06-21T17:48:01.771Z,22.05
2017-06-21T17:49:01.803Z,21.95
2017-06-21T17:50:01.848Z,22.05
2017-06-21T17:51:01.900Z,21.85
2017-06-21T17:52:01.939Z,22.14
2017-06-21T17:53:01.983Z,22.24
2017-06-21T17:54:02.035Z,22.14
2017-06-21T17:55:02.086Z,22.63
2017-06-21T17:56:02.131Z,22.63
2017-06-21T17:57:02.178Z,22.63
2017-06-21T17:58:02.209Z,22.63
2017-06-21T17:59:02.251Z,22.63
2017-06-21T18:00:02.297Z,22.91
2017-06-21T18:01:02.336Z,22.91
2017-06-21T18:02:02.383Z,23
2017-06-21T18:03:02.428Z,22.91
2017-06-21T18:04:02.470Z,23
2017-06-21T18:05:02.517Z,22.91
2017-06-21T18:06:02.558Z,22.91
2017-06-21T18:07:02.608Z,22.81
2017-06-21T18:08:02.648Z,22.72
2017-06-21T18:09:02.693Z,22.72
2017-06-21T18:10:02.735Z,22.81
2017-06-21T18:11:02.789Z,22.91
2017-06-21T18:12:02.825Z,22.52
2017-06-21T18:13:02.869Z,22.62
2017-06-21T18:14:02.914Z,22.8
2017-06-21T18:15:03.270Z,23.28
2017-06-21T18:16:03.006Z,22.9
2017-06-21T18:17:03.049Z,23.09
2017-06-21T18:18:03.090Z,23.19
2017-06-21T18:19:03.134Z,23.28
2017-06-21T18:20:03.181Z,23.87
2017-06-21T18:21:03.226Z,23.58
2017-06-21T18:22:03.267Z,23.77
2017-06-21T18:23:03.315Z,23.77
2017-06-21T18:24:03.358Z,23.87
2017-06-21T18:25:03.400Z,23.47
2017-06-21T18:26:03.445Z,23.86
2017-06-21T18:27:03.489Z,23.57
2017-06-21T18:28:03.533Z,23.86
2017-06-21T18:29:03.575Z,24.05
2017-06-21T18:30:03.619Z,24.15
2017-06-21T18:31:03.663Z,24.15
2017-06-21T18:32:04.027Z,24.15
2017-06-21T18:33:03.753Z,24.24
2017-06-21T18:34:03.796Z,24.44
2017-06-21T18:35:03.840Z,24.34
2017-06-21T18:36:03.883Z,24.24
2017-06-21T18:37:03.929Z,24.83
2017-06-21T18:38:03.976Z,24.91
2017-06-21T18:39:04.014Z,25.41
2017-06-21T18:40:04.060Z,25.41
2017-06-21T18:41:04.105Z,25.59
2017-06-21T18:42:04.469Z,25.78
2017-06-21T18:43:04.510Z,26.27
2017-06-21T18:44:04.554Z,26.37
2017-06-21T18:45:04.277Z,26.27
2017-06-21T18:46:04.648Z,26.75
2017-06-21T18:47:04.691Z,27.04
2017-06-21T18:48:04.410Z,27.14
2017-06-21T18:49:04.453Z,27.24
2017-06-21T18:50:04.501Z,27.24
2017-06-21T18:51:04.536Z,27.43
2017-06-21T18:52:04.583Z,27.53
2017-06-21T18:53:04.626Z,27.53
2017-06-21T18:54:04.975Z,27.32
2017-06-21T18:55:04.715Z,27.62
2017-06-21T18:56:04.755Z,27.91
2017-06-21T18:57:04.797Z,27.91
2017-06-21T18:58:04.845Z,28.39
2017-06-21T18:59:04.887Z,28.19
2017-06-21T19:00:04.931Z,28
2017-06-21T19:01:04.978Z,28.19
2017-06-21T19:02:05.016Z,28.29
2017-06-21T19:03:05.058Z,28.29
2017-06-21T19:04:05.104Z,28.49
2017-06-21T19:05:05.147Z,28.38
2017-06-21T19:06:05.188Z,28.38
2017-06-21T19:07:05.235Z,28.28
2017-06-21T19:08:05.274Z,28.56
2017-06-21T19:09:05.323Z,28.47
2017-06-21T19:10:05.362Z,28.47
2017-06-21T19:11:05.406Z,28.66
2017-06-21T19:12:05.450Z,28.76
2017-06-21T19:13:05.492Z,28.86
2017-06-21T19:14:05.533Z,28.96
2017-06-21T19:15:05.577Z,29.44
2017-06-21T19:16:05.623Z,28.96
2017-06-21T19:17:05.667Z,29.15
2017-06-21T19:18:05.711Z,29.24
2017-06-21T19:19:05.754Z,29.73
2017-06-21T19:20:05.797Z,29.91
2017-06-21T19:21:05.835Z,29.52
2017-06-21T19:22:05.884Z,29.71
2017-06-21T19:23:05.928Z,29.71
2017-06-21T19:24:05.969Z,29.81
2017-06-21T19:25:06.014Z,29.81
2017-06-21T19:26:06.052Z,30.2
2017-06-21T19:27:06.096Z,29.91
2017-06-21T19:28:06.143Z,30.49
2017-06-21T19:29:06.184Z,30.58
2017-06-21T19:30:06.228Z,30.78
2017-06-21T19:31:06.271Z,31.05
2017-06-21T19:32:06.312Z,31.25
2017-06-21T19:33:06.355Z,31.25
2017-06-21T19:34:06.398Z,31.54
2017-06-21T19:35:06.443Z,31.73
2017-06-21T19:36:06.480Z,31.93
2017-06-21T19:37:06.525Z,31.93
2017-06-21T19:38:06.568Z,32.21
2017-06-21T19:39:06.617Z,32.31
2017-06-21T19:40:06.656Z,32.51
2017-06-21T19:41:06.696Z,32.51
2017-06-21T19:42:06.737Z,32.68
2017-06-21T19:43:06.787Z,33.17
2017-06-21T19:44:06.825Z,33.36
2017-06-21T19:45:06.878Z,33.45
2017-06-21T19:46:06.915Z,33.36
2017-06-21T19:47:06.955Z,33.55
2017-06-21T19:48:07.001Z,33.36
2017-06-21T19:49:07.037Z,33.34
2017-06-21T19:50:07.079Z,33.75
2017-06-21T19:51:07.124Z,33.83
2017-06-21T19:52:07.163Z,33.34
2017-06-21T19:53:07.210Z,34.02
2017-06-21T19:54:07.248Z,34.02
2017-06-21T19:55:07.294Z,34.6
2017-06-21T19:56:07.336Z,34.5
2017-06-21T19:57:07.376Z,34.41
2017-06-21T19:58:07.420Z,34.41
2017-06-21T19:59:07.466Z,34.7
2017-06-21T20:00:07.509Z,34.79
2017-06-21T20:01:07.547Z,34.79
2017-06-21T20:02:07.592Z,34.99
2017-06-21T20:03:07.941Z,34.99
2017-06-21T20:04:07.676Z,35.28
2017-06-21T20:05:07.715Z,35.26
2017-06-21T20:06:07.759Z,35.57
2017-06-21T20:07:07.804Z,35.55
2017-06-21T20:08:07.846Z,35.94
2017-06-21T20:09:07.885Z,36.03
2017-06-21T20:10:07.930Z,35.94
2017-06-21T20:11:07.970Z,36.03
2017-06-21T20:12:08.016Z,36.52
2017-06-21T20:13:08.056Z,36.32
2017-06-21T20:14:08.099Z,36.21
2017-06-21T20:15:08.137Z,36.9
2017-06-21T20:16:08.181Z,37
2017-06-21T20:17:08.226Z,36.98
2017-06-21T20:18:08.268Z,36.98
2017-06-21T20:19:08.305Z,37.17
2017-06-21T20:20:08.352Z,37.46
2017-06-21T20:21:08.395Z,37.46
2017-06-21T20:22:08.432Z,37.56
2017-06-21T20:23:08.476Z,37.65
2017-06-21T20:24:08.519Z,37.75
2017-06-21T20:25:08.561Z,37.85
2017-06-21T20:26:08.600Z,37.83
2017-06-21T20:27:08.643Z,38.21
2017-06-21T20:28:08.687Z,38.41
2017-06-21T20:29:08.726Z,38.51
2017-06-21T20:30:08.770Z,38.31
2017-06-21T20:31:08.808Z,38.51
2017-06-21T20:32:08.855Z,38.41
2017-06-21T20:33:08.896Z,38.31
2017-06-21T20:34:08.936Z,38.79
2017-06-21T20:35:08.978Z,38.89
2017-06-21T20:36:09.023Z,38.6
2017-06-21T20:37:09.062Z,38.7
2017-06-21T20:38:09.103Z,38.51
2017-06-21T20:39:09.148Z,38.89
2017-06-21T20:40:09.187Z,39.09
2017-06-21T20:41:09.226Z,39.09
2017-06-21T20:42:09.270Z,39.18
2017-06-21T20:43:09.313Z,38.6
2017-06-21T20:44:09.353Z,39.18
2017-06-21T20:45:09.396Z,39.57
2017-06-21T20:46:09.745Z,39.86
2017-06-21T20:47:09.479Z,39.57
2017-06-21T20:48:09.522Z,39.57
2017-06-21T20:49:09.560Z,39.66
2017-06-21T20:50:09.605Z,39.86
2017-06-21T20:51:09.644Z,39.95
2017-06-21T20:52:09.684Z,39.95
2017-06-21T20:53:09.727Z,39.76
2017-06-21T20:54:10.087Z,40.03
2017-06-21T20:55:09.810Z,40.63
2017-06-21T20:56:09.854Z,40.53
2017-06-21T20:57:09.896Z,40.32
2017-06-21T20:58:09.936Z,40.42
2017-06-21T20:59:09.976Z,40.51
2017-06-21T21:00:10.024Z,40.42
2017-06-21T21:01:10.063Z,40.61
2017-06-21T21:02:10.103Z,40.51
2017-06-21T21:03:10.147Z,40.51
2017-06-21T21:04:10.184Z,40.9
2017-06-21T21:05:10.264Z,40.51
2017-06-21T21:06:10.269Z,40.61
2017-06-21T21:07:10.314Z,40.61
2017-06-21T21:08:10.352Z,40.61
2017-06-21T21:09:10.398Z,41.09
2017-06-21T21:10:10.745Z,40.99
2017-06-21T21:11:10.474Z,41.19
2017-06-21T21:12:10.829Z,41.48
2017-06-21T21:13:10.561Z,40.99
2017-06-21T21:14:10.597Z,41.48
2017-06-21T21:15:10.644Z,41.67
2017-06-21T21:16:10.682Z,41.77
2017-06-21T21:17:10.727Z,41.84
2017-06-21T21:18:10.764Z,41.75
2017-06-21T21:19:10.806Z,41.94
2017-06-21T21:20:10.847Z,42.03
2017-06-21T21:21:11.203Z,41.94
2017-06-21T21:22:10.930Z,42.03
2017-06-21T21:23:10.974Z,42.13
2017-06-21T21:24:11.013Z,42.13
2017-06-21T21:25:11.057Z,42.52
2017-06-21T21:26:11.099Z,42.42
2017-06-21T21:27:11.139Z,42.52
2017-06-21T21:28:11.183Z,42.71
2017-06-21T21:29:11.222Z,42.8
2017-06-21T21:30:11.264Z,42.71
2017-06-21T21:31:11.304Z,42.8
2017-06-21T21:32:11.343Z,43
2017-06-21T21:33:11.384Z,43.29
2017-06-21T21:34:11.427Z,43.1
2017-06-21T21:35:11.468Z,43.29
2017-06-21T21:36:11.509Z,43.27
2017-06-21T21:37:11.551Z,43.17
2017-06-21T21:38:11.593Z,43.46
2017-06-21T21:39:11.631Z,43.27
2017-06-21T21:40:11.675Z,43.37
2017-06-21T21:41:11.715Z,43.17
2017-06-21T21:42:11.759Z,44.04
2017-06-21T21:43:11.802Z,43.75
2017-06-21T21:44:11.840Z,43.55
2017-06-21T21:45:11.883Z,43.55
2017-06-21T21:46:11.923Z,43.75
2017-06-21T21:47:11.962Z,43.94
2017-06-21T21:48:12.004Z,43.46
2017-06-21T21:49:12.044Z,43.63
2017-06-21T21:50:12.086Z,43.65
2017-06-21T21:51:12.135Z,44.11
2017-06-21T21:52:12.167Z,43.92
2017-06-21T21:53:12.209Z,43.92
2017-06-21T21:54:12.249Z,43.92
2017-06-21T21:55:12.295Z,44.11
2017-06-21T21:56:12.332Z,44.11
2017-06-21T21:57:12.370Z,44.42
2017-06-21T21:58:12.418Z,44.69
2017-06-21T21:59:12.455Z,44.4
2017-06-21T22:00:12.499Z,44.49
2017-06-21T22:01:12.537Z,44.59
2017-06-21T22:02:12.575Z,44.49
2017-06-21T22:03:12.621Z,44.49
2017-06-21T22:04:12.661Z,44.31
2017-06-21T22:05:13.008Z,44.69
2017-06-21T22:06:12.743Z,45.07
2017-06-21T22:07:12.881Z,44.98
2017-06-21T22:08:12.825Z,44.98
2017-06-21T22:09:12.865Z,45.07
2017-06-21T22:10:12.905Z,44.98
2017-06-21T22:11:12.945Z,45.07
2017-06-21T22:12:12.999Z,45.07
2017-06-21T22:13:13.028Z,44.98
2017-06-21T22:14:13.069Z,44.57
2017-06-21T22:15:13.107Z,44.98
2017-06-21T22:16:13.152Z,45.25
2017-06-21T22:17:13.190Z,45.17
2017-06-21T22:18:13.233Z,45.36
2017-06-21T22:19:13.271Z,46.04
2017-06-21T22:20:13.311Z,46.14
2017-06-21T22:21:13.355Z,46.01
2017-06-21T22:22:13.395Z,46.01
2017-06-21T22:23:13.437Z,45.92
2017-06-21T22:24:13.477Z,45.92
2017-06-21T22:25:13.515Z,45.73
2017-06-21T22:26:13.561Z,45.83
2017-06-21T22:27:13.597Z,46.11
2017-06-21T22:28:13.641Z,46.21
2017-06-21T22:29:13.678Z,46.01
2017-06-21T22:30:13.721Z,46.21
2017-06-21T22:31:13.762Z,46.59
2017-06-21T22:32:13.800Z,46.59
2017-06-21T22:33:13.846Z,47.08
2017-06-21T22:34:13.882Z,46.98
2017-06-21T22:35:13.927Z,47.08
2017-06-21T22:36:13.966Z,47.53
2017-06-21T22:37:14.004Z,47.46
2017-06-21T22:38:14.047Z,47.44
2017-06-21T22:39:14.085Z,47.53
2017-06-21T22:40:14.129Z,47.24
2017-06-21T22:41:14.169Z,47.63
2017-06-21T22:42:14.206Z,47.63
2017-06-21T22:43:14.250Z,47.72
2017-06-21T22:44:14.288Z,47.82
2017-06-21T22:45:14.329Z,47.72
2017-06-21T22:46:14.372Z,48.11
2017-06-21T22:47:14.412Z,48.11
2017-06-21T22:48:14.449Z,47.82
2017-06-21T22:49:14.492Z,48.21
2017-06-21T22:50:14.539Z,48.02
2017-06-21T22:51:14.575Z,48.49
2017-06-21T22:52:14.627Z,48.3
2017-06-21T22:53:14.651Z,48.88
2017-06-21T22:54:14.693Z,48.69
2017-06-21T22:55:14.732Z,48.49
2017-06-21T22:56:14.775Z,47.92
2017-06-21T22:57:14.822Z,48.59
2017-06-21T22:58:14.857Z,48.28
2017-06-21T22:59:14.897Z,48.28
2017-06-21T23:00:14.939Z,47.89
2017-06-21T23:01:14.980Z,48.38
2017-06-21T23:02:15.016Z,48.18
2017-06-21T23:03:15.061Z,48.38
2017-06-21T23:04:15.097Z,48.66
2017-06-21T23:05:15.141Z,48.66
2017-06-21T23:06:15.181Z,48.28
2017-06-21T23:07:15.221Z,48.76
2017-06-21T23:08:15.259Z,48.08
2017-06-21T23:09:15.301Z,48.76
2017-06-21T23:10:15.342Z,49.05
2017-06-21T23:11:15.381Z,48.76
2017-06-21T23:12:15.425Z,48.18
2017-06-21T23:13:15.464Z,48.85
2017-06-21T23:14:15.503Z,48.95
2017-06-21T23:15:15.543Z,48.57
2017-06-21T23:16:15.583Z,48.66
2017-06-21T23:17:15.625Z,48.66
2017-06-21T23:18:15.665Z,49.05
2017-06-21T23:19:15.703Z,49.05
2017-06-21T23:20:15.749Z,49.05
2017-06-21T23:21:15.784Z,48.66
2017-06-21T23:22:15.826Z,48.66
2017-06-21T23:23:15.867Z,49.24
2017-06-21T23:24:15.906Z,48.95
2017-06-21T23:25:15.949Z,48.85
2017-06-21T23:26:15.987Z,48.57
2017-06-21T23:27:16.029Z,48.57
2017-06-21T23:28:16.068Z,48.66
2017-06-21T23:29:16.107Z,48.76
2017-06-21T23:30:16.146Z,48.66
2017-06-21T23:31:16.188Z,48.76
2017-06-21T23:32:16.229Z,48.47
2017-06-21T23:33:16.266Z,49.05
2017-06-21T23:34:16.308Z,49.24
2017-06-21T23:35:16.347Z,48.66
2017-06-21T23:36:16.398Z,49.15
2017-06-21T23:37:16.431Z,49.15
2017-06-21T23:38:16.469Z,49.53
2017-06-21T23:39:16.510Z,49.24
2017-06-21T23:40:16.549Z,49.43
2017-06-21T23:41:16.593Z,49.24
2017-06-21T23:42:16.634Z,49.43
2017-06-21T23:43:16.671Z,49.15
2017-06-21T23:44:16.712Z,49.24
2017-06-21T23:45:16.974Z,49.33
2017-06-21T23:46:16.790Z,50.01
2017-06-21T23:47:16.834Z,49.63
2017-06-21T23:48:16.873Z,49.69
2017-06-21T23:49:16.911Z,49.63
2017-06-21T23:50:16.956Z,49.41
2017-06-21T23:51:17.017Z,49.41
2017-06-21T23:52:17.034Z,49.6
2017-06-21T23:53:17.074Z,49.6
2017-06-21T23:54:17.121Z,49.31
2017-06-21T23:55:17.156Z,49.89
2017-06-21T23:56:17.192Z,50.08
2017-06-21T23:57:17.238Z,50.37
2017-06-21T23:58:17.273Z,50.76
2017-06-21T23:59:17.315Z,50.85
